Time;durP1;ratioP1;P1;durP2;ratioP2;P2;SDS_P1;SDS_P2;PMS_P1;PMS_P2;Temp;Humidity;BMP_temperature;BMP_pressure;BME280_temperature;BME280_humidity;BME280_pressure;Samples;Min_cycle;Max_cycle;Signal;HPM_P1;HPM_P2
2020/12/07 00:00:25;;;;;;;39.33;17.40;;;;;;;3.28;100.00;100255.75;1853551;76;938758;-72
2020/12/07 00:02:55;;;;;;;37.13;15.83;;;;;;;3.41;100.00;100254.86;1845626;76;936790;-72
2020/12/07 00:05:26;;;;;;;45.33;15.85;;;;;;;3.44;100.00;100254.34;1853338;76;938734;-72
2020/12/07 00:07:55;;;;;;;38.70;16.13;;;;;;;3.32;100.00;100246.77;1845765;76;936896;-72
2020/12/07 00:10:25;;;;;;;36.23;14.67;;;;;;;3.42;100.00;100248.30;1853408;76;938720;-73
2020/12/07 00:12:55;;;;;;;37.10;14.83;;;;;;;3.44;100.00;100246.11;1845034;76;937126;-72
2020/12/07 00:15:25;;;;;;;41.48;14.95;;;;;;;3.42;100.00;100244.17;1853224;75;938962;-72
2020/12/07 00:17:55;;;;;;;34.73;15.67;;;;;;;3.42;100.00;100243.34;1845846;76;936827;-73
2020/12/07 00:20:24;;;;;;;47.58;15.18;;;;;;;3.42;100.00;100238.69;1854075;75;938841;-72
2020/12/07 00:22:56;;;;;;;42.67;15.50;;;;;;;3.41;100.00;100233.44;1844939;77;936863;-72
2020/12/07 00:25:26;;;;;;;38.78;15.13;;;;;;;3.34;100.00;100229.48;1853319;75;939198;-72
2020/12/07 00:27:56;;;;;;;34.87;14.43;;;;;;;3.38;100.00;100226.52;1844923;77;936876;-73
2020/12/07 00:30:26;;;;;;;32.70;15.40;;;;;;;3.44;100.00;100232.92;1854330;75;938752;-73
2020/12/07 00:32:56;;;;;;;33.97;14.93;;;;;;;3.44;100.00;100230.17;1845761;77;936982;-73
2020/12/07 00:35:26;;;;;;;35.88;14.80;;;;;;;3.41;100.00;100236.19;1854351;75;938666;-73
2020/12/07 00:37:55;;;;;;;35.90;15.10;;;;;;;3.44;100.00;100224.69;1845768;77;937375;-72
2020/12/07 00:40:25;;;;;;;38.10;14.63;;;;;;;3.40;100.00;100222.16;1854121;75;938748;-72
2020/12/07 00:42:55;;;;;;;42.47;14.80;;;;;;;3.36;100.00;100216.35;1845722;76;936866;-72
2020/12/07 00:45:25;;;;;;;35.37;14.23;;;;;;;3.26;100.00;100219.48;1854350;75;938655;-73
2020/12/07 00:47:55;;;;;;;32.53;14.17;;;;;;;3.33;100.00;100218.24;1867005;75;937035;-73
2020/12/07 00:50:24;;;;;;;33.15;14.63;;;;;;;3.18;100.00;100227.08;1833162;76;938804;-73
2020/12/07 00:52:54;;;;;;;33.33;14.27;;;;;;;3.37;100.00;100235.86;1865644;76;936955;-72
2020/12/07 00:55:24;;;;;;;36.93;14.43;;;;;;;3.31;100.00;100235.49;1853967;76;938678;-73
2020/12/07 00:57:54;;;;;;;33.50;14.17;;;;;;;3.39;100.00;100228.19;1845777;76;938765;-72
2020/12/07 01:00:24;;;;;;;35.70;15.93;;;;;;;3.37;100.00;100224.88;1853510;76;938661;-72
2020/12/07 01:02:54;;;;;;;33.93;14.10;;;;;;;3.30;100.00;100228.33;1866406;75;938722;-73
2020/12/07 01:05:23;;;;;;;32.03;14.17;;;;;;;3.28;100.00;100222.82;1833586;77;938810;-73
2020/12/07 01:07:54;;;;;;;33.57;13.70;;;;;;;3.24;100.00;100220.30;1866376;75;938716;-73
2020/12/07 01:10:23;;;;;;;33.53;13.32;;;;;;;3.21;100.00;100218.86;1833684;76;938677;-73
2020/12/07 01:12:53;;;;;;;29.97;13.90;;;;;;;3.13;100.00;100221.50;1866485;75;938867;-73
2020/12/07 01:15:23;;;;;;;36.33;13.62;;;;;;;3.08;100.00;100213.77;1833372;76;939020;-73
2020/12/07 01:17:53;;;;;;;30.23;12.63;;;;;;;3.10;100.00;100201.98;1865920;76;938800;-73
2020/12/07 01:20:23;;;;;;;31.55;13.55;;;;;;;3.13;100.00;100201.47;1832295;77;939055;-73
2020/12/07 01:22:52;;;;;;;39.80;13.57;;;;;;;3.20;100.00;100199.39;1865745;76;938766;-73
2020/12/07 01:25:22;;;;;;;32.28;14.35;;;;;;;3.09;100.00;100201.14;1832550;77;938795;-73
2020/12/07 01:27:52;;;;;;;33.40;13.97;;;;;;;3.16;100.00;100192.21;1866197;75;938736;-73
2020/12/07 01:30:22;;;;;;;35.85;13.32;;;;;;;3.21;100.00;100192.26;1831853;77;938889;-73
2020/12/07 01:32:52;;;;;;;29.70;13.22;;;;;;;3.33;100.00;100192.70;1865994;76;938890;-73
2020/12/07 01:35:21;;;;;;;35.40;13.88;;;;;;;3.30;100.00;100196.77;1854097;75;938859;-73
2020/12/07 01:37:51;;;;;;;35.97;13.80;;;;;;;3.30;100.00;100192.66;1866208;76;938748;-73
2020/12/07 01:40:21;;;;;;;32.53;12.87;;;;;;;3.30;100.00;100192.66;1832511;77;938786;-73
2020/12/07 01:42:51;;;;;;;32.73;13.90;;;;;;;3.27;100.00;100195.08;1865932;75;938785;-72
2020/12/07 01:45:21;;;;;;;32.93;13.43;;;;;;;3.28;100.00;100201.70;1854559;75;941022;-72
2020/12/07 01:47:50;;;;;;;29.80;13.40;;;;;;;3.29;100.00;100197.88;1845849;76;938745;-72
2020/12/07 01:50:20;;;;;;;46.77;15.33;;;;;;;3.35;100.00;100198.75;1853207;76;938787;-72
2020/12/07 01:52:50;;;;;;;28.97;13.63;;;;;;;3.30;100.00;100194.02;1845454;76;938778;-72
2020/12/07 01:55:20;;;;;;;30.97;12.68;;;;;;;3.27;100.00;100193.70;1853579;76;942706;-72
2020/12/07 01:57:50;;;;;;;28.07;13.07;;;;;;;3.24;100.00;100190.11;1845560;76;938811;-72
2020/12/07 02:00:22;;;;;;;29.53;12.57;;;;;;;3.28;100.00;100191.26;1853583;75;938627;-73
2020/12/07 02:02:52;;;;;;;29.87;12.90;;;;;;;3.20;100.00;100185.67;1845546;76;938810;-72
2020/12/07 02:05:23;;;;;;;29.67;12.28;;;;;;;3.24;100.00;100191.48;1853417;75;938753;-72
2020/12/07 02:08:12;;;;;;;27.40;12.43;;;;;;;3.24;100.00;100193.69;1845521;77;939042;-73
2020/12/07 02:10:43;;;;;;;26.87;12.57;;;;;;;3.28;100.00;100195.38;1867620;75;938875;-73
2020/12/07 02:13:13;;;;;;;39.27;13.77;;;;;;;3.31;100.00;100186.09;1853800;75;938821;-73
2020/12/07 02:15:43;;;;;;;31.10;13.73;;;;;;;3.24;100.00;100185.98;1865897;75;938983;-73
2020/12/07 02:18:13;;;;;;;28.90;13.20;;;;;;;3.22;100.00;100175.26;1833025;76;938757;-72
2020/12/07 02:20:48;;;;;;;28.67;12.87;;;;;;;3.21;100.00;100179.08;1845325;76;938778;-72
2020/12/07 02:23:18;;;;;;;31.73;12.25;;;;;;;3.25;100.00;100178.05;1853384;76;938974;-72
2020/12/07 02:25:48;;;;;;;29.77;12.07;;;;;;;3.18;100.00;100177.69;1845521;76;938833;-72
2020/12/07 02:28:18;;;;;;;30.93;12.80;;;;;;;3.10;100.00;100169.89;1853965;75;938681;-72
2020/12/07 02:30:48;;;;;;;27.63;12.10;;;;;;;3.08;100.00;100165.75;1845527;76;938766;-73
2020/12/07 02:33:17;;;;;;;30.95;11.97;;;;;;;3.10;100.00;100165.77;1854197;75;938982;-73
2020/12/07 02:35:47;;;;;;;28.33;12.63;;;;;;;3.04;100.00;100162.66;1866202;76;938790;-73
2020/12/07 02:38:17;;;;;;;28.33;11.43;;;;;;;3.04;100.00;100155.80;1833306;76;938941;-72
2020/12/07 02:40:47;;;;;;;25.73;11.47;;;;;;;3.12;100.00;100153.98;1866004;76;938783;-72
2020/12/07 02:43:16;;;;;;;34.55;12.68;;;;;;;3.10;100.00;100151.22;1853254;75;938948;-73
2020/12/07 02:45:46;;;;;;;23.57;11.97;;;;;;;3.00;100.00;100145.58;1866166;76;938973;-73
2020/12/07 02:48:16;;;;;;;24.50;11.33;;;;;;;3.05;100.00;100142.92;1853951;75;938526;-73
2020/12/07 02:50:46;;;;;;;25.60;12.77;;;;;;;3.02;100.00;100139.31;1866135;76;938938;-72
2020/12/07 02:53:16;;;;;;;29.67;12.47;;;;;;;2.97;100.00;100132.38;1833579;76;938716;-72
2020/12/07 02:55:45;;;;;;;27.27;12.20;;;;;;;3.00;100.00;100129.13;1865258;75;938836;-72
2020/12/07 02:58:15;;;;;;;33.13;12.30;;;;;;;2.93;100.00;100123.84;1833556;76;938795;-73
2020/12/07 03:00:45;;;;;;;27.60;10.97;;;;;;;2.96;100.00;100130.72;1865951;76;938777;-72
2020/12/07 03:03:15;;;;;;;26.05;11.08;;;;;;;2.82;100.00;100118.47;1833283;76;938815;-72
2020/12/07 03:05:45;;;;;;;24.43;10.97;;;;;;;2.82;100.00;100118.47;1867079;75;938827;-72
2020/12/07 03:08:14;;;;;;;27.70;11.40;;;;;;;2.86;100.00;100113.59;1853827;75;938840;-72
2020/12/07 03:10:44;;;;;;;29.07;11.27;;;;;;;2.88;100.00;100114.16;1845408;77;938777;-72
2020/12/07 03:13:14;;;;;;;26.30;11.77;;;;;;;2.89;100.00;100110.88;1853937;75;938693;-72
2020/12/07 03:15:44;;;;;;;24.60;11.87;;;;;;;2.89;100.00;100108.97;1845402;77;938789;-72
2020/12/07 03:18:14;;;;;;;27.05;12.20;;;;;;;2.91;100.00;100111.47;1853452;76;938862;-72
2020/12/07 03:20:44;;;;;;;25.33;10.67;;;;;;;2.78;100.00;100109.09;1845477;77;938777;-72
2020/12/07 03:23:13;;;;;;;24.30;11.27;;;;;;;2.84;100.00;100110.27;1854427;75;938852;-72
2020/12/07 03:25:43;;;;;;;22.43;10.47;;;;;;;2.81;100.00;100103.09;1845672;76;938820;-72
2020/12/07 03:28:13;;;;;;;23.47;11.47;;;;;;;2.92;100.00;100104.34;1853341;76;938803;-72
2020/12/07 03:30:43;;;;;;;25.60;9.87;;;;;;;2.79;100.00;100108.81;1845511;76;938764;-73
2020/12/07 03:33:13;;;;;;;25.17;10.60;;;;;;;2.67;100.00;100102.61;1855026;75;936950;-73
2020/12/07 03:35:42;;;;;;;21.40;11.20;;;;;;;2.74;100.00;100104.63;1845463;76;938804;-72
2020/12/07 03:38:12;;;;;;;25.63;10.13;;;;;;;2.62;100.00;100099.25;1853243;76;938900;-72
2020/12/07 03:40:42;;;;;;;22.63;10.23;;;;;;;2.62;100.00;100102.53;1845494;76;938766;-72
2020/12/07 03:43:12;;;;;;;21.17;10.00;;;;;;;2.44;100.00;100104.19;1853737;75;938791;-73
2020/12/07 03:45:44;;;;;;;22.30;9.13;;;;;;;2.67;100.00;100102.61;1845761;76;938663;-72
2020/12/07 03:48:14;;;;;;;24.77;9.88;;;;;;;2.45;100.00;100098.44;1853728;76;937012;-72
2020/12/07 03:50:43;;;;;;;21.52;9.58;;;;;;;2.47;100.00;100098.20;1866183;75;936870;-72
2020/12/07 03:53:13;;;;;;;17.17;9.07;;;;;;;2.56;100.00;100099.44;1833432;76;937315;-72
2020/12/07 03:55:43;;;;;;;20.90;9.50;;;;;;;2.58;100.00;100095.89;1866209;75;936731;-72
2020/12/07 03:58:13;;;;;;;24.33;9.30;;;;;;;2.49;100.00;100088.63;1833422;76;936675;-72
2020/12/07 04:00:43;;;;;;;24.67;8.13;;;;;;;2.43;100.00;100087.45;1866101;76;936683;-72
2020/12/07 04:03:13;;;;;;;18.00;8.50;;;;;;;2.45;100.00;100087.48;1853852;76;936563;-72
2020/12/07 04:05:45;;;;;;;22.67;8.77;;;;;;;2.41;100.00;100078.09;1845596;76;936974;-72
2020/12/07 04:08:15;;;;;;;22.87;9.43;;;;;;;2.32;100.00;100074.66;1853945;75;936955;-72
2020/12/07 04:10:45;;;;;;;20.03;9.53;;;;;;;2.26;100.00;100071.86;1845584;76;936641;-72
2020/12/07 04:13:15;;;;;;;19.67;8.68;;;;;;;2.20;100.00;100070.64;1853654;75;936667;-73
2020/12/07 04:15:45;;;;;;;17.40;10.30;;;;;;;2.17;100.00;100074.72;1845519;76;936841;-72
2020/12/07 04:18:14;;;;;;;18.30;8.77;;;;;;;2.40;100.00;100077.80;1833823;76;938675;-73
2020/12/07 04:20:44;;;;;;;18.13;8.33;;;;;;;2.46;100.00;100072.70;1865819;76;936717;-73
2020/12/07 04:23:14;;;;;;;20.10;8.80;;;;;;;2.41;100.00;100077.27;1833317;76;937125;-72
2020/12/07 04:25:44;;;;;;;17.43;8.60;;;;;;;2.43;100.00;100070.47;1866248;75;936815;-72
2020/12/07 04:28:14;;;;;;;22.20;9.13;;;;;;;2.33;100.00;100068.94;1853585;75;936642;-72
2020/12/07 04:30:43;;;;;;;26.07;9.98;;;;;;;2.36;100.00;100069.80;1865987;76;936662;-72
2020/12/07 04:33:13;;;;;;;19.27;9.30;;;;;;;2.40;100.00;100076.43;1832870;76;936741;-72
2020/12/07 04:35:44;;;;;;;19.23;8.97;;;;;;;2.42;100.00;100069.34;1865979;75;936890;-73
2020/12/07 04:38:14;;;;;;;24.10;9.75;;;;;;;2.45;100.00;100068.29;1833258;76;936835;-72
2020/12/07 04:40:44;;;;;;;20.33;9.17;;;;;;;2.47;100.00;100063.41;1865989;76;936654;-73
2020/12/07 04:43:15;;;;;;;24.10;10.00;;;;;;;2.35;100.00;100065.41;1832195;76;936717;-72
2020/12/07 04:45:45;;;;;;;23.97;9.33;;;;;;;2.54;100.00;100062.67;1845482;76;938839;-72
2020/12/07 04:48:16;;;;;;;19.50;9.53;;;;;;;2.50;100.00;100061.52;1853950;76;936825;-72
2020/12/07 04:50:46;;;;;;;22.57;9.60;;;;;;;2.45;100.00;100053.22;1865730;76;936604;-72
2020/12/07 04:53:18;;;;;;;26.20;11.03;;;;;;;2.41;100.00;100047.95;1853809;75;936842;-72
2020/12/07 04:55:47;;;;;;;28.67;10.72;;;;;;;2.34;100.00;100053.33;1845307;77;938849;-72
2020/12/07 04:58:18;;;;;;;17.20;9.48;;;;;;;2.40;100.00;100050.94;1853735;75;938699;-72
2020/12/07 05:00:48;;;;;;;12.90;7.50;;;;;;;2.48;100.00;100053.27;1833454;76;936626;-72
2020/12/07 05:03:17;;;;;;;16.50;8.20;;;;;;;2.42;100.00;100050.16;1854126;75;936674;-72
2020/12/07 05:05:49;;;;;;;17.20;7.93;;;;;;;2.49;100.00;100043.95;1866372;76;936619;-72
2020/12/07 05:08:18;;;;;;;17.07;8.50;;;;;;;2.50;100.00;100046.45;1833276;76;936676;-72
2020/12/07 05:10:49;;;;;;;19.20;8.97;;;;;;;2.61;100.00;100048.80;1866010;76;936649;-73
2020/12/07 05:13:26;;;;;;;16.63;8.70;;;;;;;2.64;100.00;100050.50;1854134;76;936660;-72
2020/12/07 05:15:54;;;;;;;20.37;9.43;;;;;;;2.58;100.00;100046.02;1865975;75;936713;-72
2020/12/07 05:18:24;;;;;;;17.17;9.83;;;;;;;2.65;100.00;100036.25;1854063;75;936656;-73
2020/12/07 05:20:54;;;;;;;19.57;9.93;;;;;;;2.58;100.00;100037.79;1845917;76;936676;-73
2020/12/07 05:23:24;;;;;;;18.65;8.50;;;;;;;2.59;100.00;100031.23;1833390;76;936606;-73
2020/12/07 05:25:55;;;;;;;19.47;8.37;;;;;;;2.57;100.00;100036.66;1866146;76;934760;-73
2020/12/07 05:28:29;;;;;;;21.70;9.88;;;;;;;2.43;100.00;100032.64;1853808;76;936765;-73
2020/12/07 05:31:00;;;;;;;17.40;9.00;;;;;;;2.31;100.00;100032.72;1865990;75;934808;-73
2020/12/07 05:33:31;;;;;;;24.70;8.37;;;;;;;2.51;100.00;100037.16;1853439;75;936749;-73
2020/12/07 05:36:01;;;;;;;19.83;8.23;;;;;;;2.39;100.00;100031.48;1845576;75;934855;-72
2020/12/07 05:38:35;;;;;;;17.07;9.10;;;;;;;2.31;100.00;100025.07;1853538;76;936829;-72
2020/12/07 05:41:07;;;;;;;18.07;9.37;;;;;;;2.39;100.00;100021.89;1845646;77;934798;-72
2020/12/07 05:43:39;;;;;;;19.60;8.83;;;;;;;2.46;100.00;100020.63;1866265;75;936554;-72
2020/12/07 05:46:08;;;;;;;22.67;9.37;;;;;;;2.36;100.00;100020.47;1845645;76;935114;-73
2020/12/07 05:48:40;;;;;;;16.97;9.50;;;;;;;2.48;100.00;100009.42;1866262;75;936640;-72
2020/12/07 05:51:11;;;;;;;17.07;8.33;;;;;;;2.40;100.00;100009.29;1833050;76;936698;-72
2020/12/07 05:53:42;;;;;;;23.60;10.27;;;;;;;2.46;100.00;100014.31;1866226;76;937294;-72
2020/12/07 05:56:12;;;;;;;21.27;9.70;;;;;;;2.57;100.00;100010.08;1833419;76;939033;-73
2020/12/07 05:58:45;;;;;;;19.43;8.93;;;;;;;2.48;100.00;100010.23;1866094;76;937066;-72
2020/12/07 06:01:18;;;;;;;26.27;8.83;;;;;;;2.47;100.00;100006.39;1854047;75;936849;-72
2020/12/07 06:03:48;;;;;;;18.20;9.40;;;;;;;2.55;100.00;100010.89;1865745;75;936569;-72
2020/12/07 06:06:21;;;;;;;20.23;8.80;;;;;;;2.39;100.00;100008.19;1833395;76;936761;-73
2020/12/07 06:08:52;;;;;;;29.27;9.57;;;;;;;2.39;100.00;100009.03;1865677;75;936573;-72
2020/12/07 06:11:24;;;;;;;18.82;9.88;;;;;;;2.35;100.00;100009.25;1833416;76;936601;-73
2020/12/07 06:13:55;;;;;;;21.00;9.37;;;;;;;2.35;100.00;100007.88;1865765;75;934683;-72
2020/12/07 06:16:29;;;;;;;17.48;8.78;;;;;;;2.37;100.00;100007.60;1833322;76;936604;-72
2020/12/07 06:18:59;;;;;;;20.50;10.37;;;;;;;2.45;100.00;100002.52;1865967;76;934720;-72
2020/12/07 06:21:29;;;;;;;22.80;9.45;;;;;;;2.43;100.00;99997.84;1853786;75;938732;-72
2020/12/07 06:24:00;;;;;;;22.03;10.97;;;;;;;2.36;100.00;100005.40;1845500;77;932571;-72
2020/12/07 06:26:30;;;;;;;21.50;9.90;;;;;;;2.47;100.00;100005.02;1853619;75;938945;-72
2020/12/07 06:29:03;;;;;;;22.07;10.70;;;;;;;2.38;100.00;100001.05;1845545;76;934835;-72
2020/12/07 06:31:36;;;;;;;28.30;10.67;;;;;;;2.46;100.00;100000.61;1853738;75;958116;-71
2020/12/07 06:34:10;;;;;;;23.47;10.67;;;;;;;2.38;100.00;99999.67;1865940;76;936920;-72
2020/12/07 06:36:41;;;;;;;30.10;11.17;;;;;;;2.35;100.00;100008.41;1866026;76;936857;-72
2020/12/07 06:39:12;;;;;;;18.27;10.23;;;;;;;2.34;100.00;100012.23;1833239;77;938722;-72
2020/12/07 06:41:44;;;;;;;23.37;9.90;;;;;;;2.29;100.00;100008.87;1865453;76;938927;-72
2020/12/07 06:44:17;;;;;;;23.75;9.85;;;;;;;2.41;100.00;100004.11;1832888;76;937155;-72
2020/12/07 06:47:00;;;;;;;22.67;10.13;;;;;;;2.38;100.00;100003.78;1866159;75;936549;-72
2020/12/07 06:49:37;;;;;;;24.20;10.47;;;;;;;2.39;100.00;100004.91;1833372;76;938664;-72
2020/12/07 06:52:11;;;;;;;20.77;10.47;;;;;;;2.40;100.00;100013.41;1866104;76;936734;-73
2020/12/07 06:55:05;;;;;;;20.62;10.32;;;;;;;2.39;100.00;100009.03;1844791;77;938864;-72
2020/12/07 06:57:41;;;;;;;22.83;10.70;;;;;;;2.40;100.00;100010.66;1866091;76;938812;-72
2020/12/07 07:00:17;;;;;;;21.33;10.13;;;;;;;2.45;100.00;99996.20;1833217;76;938735;-71
2020/12/07 07:02:48;;;;;;;20.93;10.33;;;;;;;2.46;100.00;99995.96;1866480;75;936539;-71
2020/12/07 07:05:19;;;;;;;26.87;10.33;;;;;;;2.41;100.00;99993.68;1833574;76;935512;-71
2020/12/07 07:07:51;;;;;;;27.33;11.60;;;;;;;2.26;100.00;99999.80;1866274;75;936767;-72
2020/12/07 07:10:21;;;;;;;27.60;10.72;;;;;;;2.34;100.00;100002.63;1853834;75;940544;-71
2020/12/07 07:12:52;;;;;;;23.70;10.47;;;;;;;2.34;100.00;100003.47;1845077;76;938781;-71
2020/12/07 07:15:23;;;;;;;28.83;11.17;;;;;;;2.25;100.00;100007.72;1854256;75;938886;-72
2020/12/07 07:17:53;;;;;;;24.63;11.30;;;;;;;2.26;100.00;100006.64;1845399;76;938968;-72
2020/12/07 07:20:23;;;;;;;30.17;11.40;;;;;;;2.21;100.00;100008.77;1853895;75;938900;-72
2020/12/07 07:22:53;;;;;;;32.87;12.73;;;;;;;2.29;100.00;100006.96;1866047;76;938682;-72
2020/12/07 07:25:29;;;;;;;21.12;10.40;;;;;;;2.28;100.00;100002.55;1829833;77;939143;-71
2020/12/07 07:28:05;;;;;;;20.80;10.10;;;;;;;2.25;100.00;100001.70;1865886;75;936997;-72
2020/12/07 07:30:35;;;;;;;27.47;10.73;;;;;;;2.27;100.00;100001.42;1845328;76;938674;-71
2020/12/07 07:33:05;;;;;;;22.10;11.33;;;;;;;2.34;100.00;100003.47;1866108;75;936800;-72
2020/12/07 07:35:35;;;;;;;18.80;9.53;;;;;;;2.12;100.00;99997.94;1845454;76;938809;-71
2020/12/07 07:38:05;;;;;;;23.50;11.30;;;;;;;2.20;100.00;99998.88;1866200;75;932789;-71
2020/12/07 07:40:36;;;;;;;26.70;11.03;;;;;;;2.26;100.00;100003.90;1845079;76;936926;-72
2020/12/07 07:43:10;;;;;;;24.27;10.07;;;;;;;2.23;100.00;100001.64;1866134;75;936941;-73
2020/12/07 07:45:39;;;;;;;31.47;11.70;;;;;;;2.16;100.00;99992.78;1865533;75;938801;-72
2020/12/07 07:48:15;;;;;;;24.30;11.20;;;;;;;2.26;100.00;99991.57;1837785;77;936606;-73
2020/12/07 07:51:21;;;;;;;26.10;10.73;;;;;;;2.32;100.00;99993.28;1853831;76;936507;-72
2020/12/07 07:54:05;;;;;;;23.83;10.50;;;;;;;2.33;100.00;99999.06;1863576;75;936558;-73
2020/12/07 08:16:21;;;;;;;28.35;11.85;;;;;;;2.58;100.00;100017.23;1854782;75;939069;-74
2020/12/07 08:18:56;;;;;;;23.50;11.07;;;;;;;2.54;100.00;100008.39;1865881;76;938716;-74
2020/12/07 08:21:28;;;;;;;26.30;12.53;;;;;;;2.58;100.00;100020.50;1852981;75;938883;-75
2020/12/07 08:24:05;;;;;;;25.20;11.20;;;;;;;2.55;100.00;100012.27;1845476;76;936796;-75
2020/12/07 08:26:30;;;;;;;21.45;11.03;;;;;;;2.62;100.00;100010.69;1852201;75;938879;-75
2020/12/07 08:29:06;;;;;;;23.37;10.70;;;;;;;2.64;100.00;100012.12;1845574;76;936942;-73
2020/12/07 08:31:38;;;;;;;36.67;11.57;;;;;;;2.53;100.00;100013.05;1865634;76;938890;-73
2020/12/07 08:34:12;;;;;;;30.73;11.87;;;;;;;2.61;100.00;100013.97;1845582;76;936747;-73
2020/12/07 08:36:44;;;;;;;24.93;12.57;;;;;;;2.53;100.00;100016.32;1866010;75;938901;-73
2020/12/07 08:39:14;;;;;;;25.45;11.03;;;;;;;2.72;100.00;100014.95;1833181;76;938710;-71
2020/12/07 08:41:44;;;;;;;23.33;10.87;;;;;;;2.55;100.00;100013.63;1866153;75;938680;-73
2020/12/07 08:44:14;;;;;;;25.30;10.78;;;;;;;2.74;100.00;100016.88;1833172;76;938710;-74
2020/12/07 08:46:44;;;;;;;21.73;11.27;;;;;;;2.82;100.00;100015.63;1865795;76;938892;-72
2020/12/07 08:49:15;;;;;;;25.55;11.28;;;;;;;2.75;100.00;100017.17;1832446;76;938819;-72
2020/12/07 08:51:45;;;;;;;31.07;12.18;;;;;;;2.56;100.00;100015.30;1865600;75;938637;-72
2020/12/07 08:54:15;;;;;;;25.83;12.70;;;;;;;2.66;100.00;100010.47;1833449;76;938591;-72
2020/12/07 08:56:45;;;;;;;24.73;11.33;;;;;;;2.55;100.00;100016.91;1865331;76;939027;-72
2020/12/07 08:59:15;;;;;;;24.50;13.08;;;;;;;2.52;100.00;100007.30;1832550;76;938996;-72
2020/12/07 09:01:45;;;;;;;24.93;12.17;;;;;;;2.46;100.00;100015.15;1844783;77;938790;-72
2020/12/07 09:04:15;;;;;;;21.47;11.07;;;;;;;2.42;100.00;100011.79;1853140;75;938706;-72
2020/12/07 09:06:49;;;;;;;23.80;11.80;;;;;;;2.27;100.00;100010.48;1845707;76;938761;-72
2020/12/07 09:09:16;;;;;;;26.55;11.53;;;;;;;2.35;100.00;100009.78;1853250;75;938711;-72
2020/12/07 09:11:46;;;;;;;22.60;11.77;;;;;;;2.49;100.00;100006.95;1845381;77;938819;-72
2020/12/07 09:14:16;;;;;;;28.65;12.73;;;;;;;2.37;100.00;100012.55;1852904;75;938810;-72
2020/12/07 09:16:46;;;;;;;26.73;12.67;;;;;;;2.46;100.00;100015.69;1866083;76;938846;-73
2020/12/07 09:19:15;;;;;;;24.23;11.90;;;;;;;2.50;100.00;100020.41;1832574;77;938768;-73
2020/12/07 09:21:45;;;;;;;24.30;12.60;;;;;;;2.51;100.00;100016.59;1866648;75;938843;-72
2020/12/07 09:24:18;;;;;;;24.63;12.50;;;;;;;2.51;100.00;100021.24;1831955;77;938670;-72
2020/12/07 09:26:46;;;;;;;18.73;10.63;;;;;;;2.45;100.00;100014.84;1865420;76;937656;-71
2020/12/07 09:29:16;;;;;;;21.03;11.60;;;;;;;2.45;100.00;100020.33;1853391;76;938824;-70
2020/12/07 09:31:46;;;;;;;21.33;11.73;;;;;;;2.53;100.00;100017.16;1845448;76;938796;-73
2020/12/07 09:34:16;;;;;;;22.02;12.33;;;;;;;2.58;100.00;100011.75;1853661;75;938635;-72
2020/12/07 09:36:47;;;;;;;20.87;11.77;;;;;;;2.70;100.00;100010.25;1845587;76;938774;-73
2020/12/07 09:39:17;;;;;;;23.73;12.07;;;;;;;2.99;100.00;100004.88;1853568;76;938681;-72
2020/12/07 09:41:46;;;;;;;23.13;13.07;;;;;;;3.04;100.00;100009.57;1845454;76;938738;-70
2020/12/07 09:44:16;;;;;;;20.08;11.48;;;;;;;3.11;100.00;100006.11;1853442;75;938891;-71
2020/12/07 09:46:46;;;;;;;24.57;14.40;;;;;;;3.01;100.00;100010.92;1845305;77;938970;-72
2020/12/07 09:49:16;;;;;;;25.05;12.82;;;;;;;2.92;100.00;100014.37;1853576;75;938762;-72
2020/12/07 09:51:46;;;;;;;21.43;12.50;;;;;;;2.78;100.00;100012.58;1845475;77;938705;-73
2020/12/07 09:54:16;;;;;;;29.12;14.75;;;;;;;2.79;100.00;100014.75;1853803;75;938759;-73
2020/12/07 09:56:45;;;;;;;30.50;14.53;;;;;;;2.91;100.00;100016.28;1844847;76;938723;-72
2020/12/07 09:59:15;;;;;;;26.80;14.47;;;;;;;2.84;100.00;100019.77;1853730;75;938640;-71
2020/12/07 10:01:45;;;;;;;27.07;14.37;;;;;;;2.68;100.00;100021.48;1844065;76;938922;-72
2020/12/07 10:04:15;;;;;;;28.12;15.72;;;;;;;2.78;100.00;100029.03;1853796;75;938746;-72
2020/12/07 10:06:45;;;;;;;29.40;15.67;;;;;;;2.81;100.00;100020.82;1845541;76;938717;-71
2020/12/07 10:09:14;;;;;;;26.37;15.05;;;;;;;2.65;100.00;100020.60;1853663;76;938754;-71
2020/12/07 10:11:44;;;;;;;31.10;17.05;;;;;;;2.71;100.00;100017.40;1845251;77;938664;-71
2020/12/07 10:14:14;;;;;;;30.90;16.30;;;;;;;2.93;100.00;100014.66;1852039;76;939126;-72
2020/12/07 10:16:45;;;;;;;30.10;16.20;;;;;;;3.05;100.00;100014.81;1865787;76;938738;-71
2020/12/07 10:19:15;;;;;;;32.53;16.67;;;;;;;3.13;100.00;100009.41;1830097;76;938651;-71
2020/12/07 10:21:45;;;;;;;31.70;17.10;;;;;;;3.09;100.00;100002.78;1865515;76;938650;-71
2020/12/07 10:24:15;;;;;;;29.83;17.17;;;;;;;3.00;100.00;100006.52;1833262;77;938900;-71
2020/12/07 10:26:44;;;;;;;36.93;18.70;;;;;;;3.13;100.00;100006.13;1865932;76;938674;-71
2020/12/07 10:29:14;;;;;;;38.80;19.35;;;;;;;3.21;100.00;100000.17;1832288;76;938631;-71
2020/12/07 10:31:44;;;;;;;35.07;17.93;;;;;;;3.14;100.00;99998.19;1865708;75;938760;-72
2020/12/07 10:34:14;;;;;;;37.37;18.57;;;;;;;3.22;100.00;100002.38;1829706;76;936778;-71
2020/12/07 10:36:47;;;;;;;36.73;19.70;;;;;;;3.14;100.00;99991.33;1865819;75;938720;-71
2020/12/07 10:39:17;;;;;;;37.90;19.48;;;;;;;3.03;100.00;99990.94;1853821;75;936759;-71
2020/12/07 10:41:47;;;;;;;33.17;17.77;;;;;;;2.93;100.00;99985.33;1844914;77;936690;-71
2020/12/07 10:44:17;;;;;;;36.93;19.90;;;;;;;3.22;100.00;99984.55;1853849;76;936587;-71
2020/12/07 10:46:50;;;;;;;37.83;19.70;;;;;;;3.18;100.00;99986.15;1866107;76;936581;-71
2020/12/07 10:49:20;;;;;;;35.92;18.85;;;;;;;3.05;100.00;99983.80;1833151;76;936650;-72
2020/12/07 10:51:50;;;;;;;33.67;16.53;;;;;;;2.98;100.00;99985.39;1866141;75;936848;-71
2020/12/07 10:54:20;;;;;;;30.37;15.53;;;;;;;2.95;100.00;99985.87;1833178;77;936650;-72
2020/12/07 10:56:50;;;;;;;34.87;17.70;;;;;;;3.23;100.00;99984.84;1866060;75;936783;-71
2020/12/07 10:59:19;;;;;;;34.60;18.75;;;;;;;2.94;100.00;99973.28;1833714;76;946356;-71
2020/12/07 11:01:53;;;;;;;33.47;16.53;;;;;;;3.01;100.00;99973.06;1865998;76;936752;-71
2020/12/07 11:04:23;;;;;;;30.40;16.35;;;;;;;2.97;100.00;99971.38;1833212;77;936670;-71
2020/12/07 11:06:54;;;;;;;28.20;16.57;;;;;;;2.93;100.00;99977.09;1866246;75;936577;-71
2020/12/07 11:09:24;;;;;;;25.97;15.00;;;;;;;2.98;100.00;99974.95;1853887;76;936833;-71
2020/12/07 11:11:58;;;;;;;26.80;16.00;;;;;;;3.21;100.00;99976.84;1845755;76;934748;-71
2020/12/07 11:14:26;;;;;;;24.87;14.68;;;;;;;3.11;100.00;99966.33;1853470;75;936551;-71
2020/12/07 11:17:00;;;;;;;25.23;14.13;;;;;;;3.31;100.00;99967.91;1866072;75;934785;-71
2020/12/07 11:19:30;;;;;;;29.27;15.10;;;;;;;3.18;100.00;99966.41;1833193;77;936892;-71
2020/12/07 11:22:00;;;;;;;27.40;14.93;;;;;;;3.15;100.00;99963.35;1865986;75;934686;-72
2020/12/07 11:24:29;;;;;;;30.87;16.70;;;;;;;3.13;100.00;99962.77;1853723;75;936826;-72
2020/12/07 11:26:59;;;;;;;27.50;15.17;;;;;;;3.24;100.00;99954.94;1845529;76;934692;-72
2020/12/07 11:29:29;;;;;;;30.27;14.80;;;;;;;3.35;100.00;99947.08;1853526;75;937032;-72
2020/12/07 11:31:59;;;;;;;29.70;15.90;;;;;;;3.25;100.00;99935.20;1844782;77;934857;-72
2020/12/07 11:34:29;;;;;;;31.50;14.90;;;;;;;3.18;100.00;99937.59;1853723;75;936679;-72
2020/12/07 11:36:59;;;;;;;28.50;15.20;;;;;;;3.25;100.00;99935.20;1845006;76;935204;-72
2020/12/07 11:39:40;;;;;;;30.17;16.23;;;;;;;3.04;100.00;99928.65;1853949;76;936658;-72